sensor_id;sensor_type;location;lat;lon;timestamp;pressure;altitude;pressure_sealevel;temperature;humidity
52651;BME280;38537;47.226;39.702;2023-04-15T00:01:10;100455.84;;;5.72;78.84
52651;BME280;38537;47.226;39.702;2023-04-15T00:03:38;100471.38;;;5.78;78.77
52651;BME280;38537;47.226;39.702;2023-04-15T00:06:05;100488.56;;;5.75;78.89
52651;BME280;38537;47.226;39.702;2023-04-15T00:08:33;100481.06;;;5.70;78.42
52651;BME280;38537;47.226;39.702;2023-04-15T00:11:00;100480.22;;;5.70;79.28
52651;BME280;38537;47.226;39.702;2023-04-15T00:13:31;100488.25;;;5.66;79.14
52651;BME280;38537;47.226;39.702;2023-04-15T00:16:00;100490.19;;;5.71;78.83
52651;BME280;38537;47.226;39.702;2023-04-15T00:18:27;100492.16;;;5.75;78.71
52651;BME280;38537;47.226;39.702;2023-04-15T00:20:55;100488.25;;;5.71;79.16
52651;BME280;38537;47.226;39.702;2023-04-15T00:23:22;100480.22;;;5.70;78.43
52651;BME280;38537;47.226;39.702;2023-04-15T00:25:50;100505.19;;;5.75;78.62
52651;BME280;38537;47.226;39.702;2023-04-15T00:28:17;100516.78;;;5.62;78.47
52651;BME280;38537;47.226;39.702;2023-04-15T00:30:45;100505.06;;;5.44;78.11
52651;BME280;38537;47.226;39.702;2023-04-15T00:33:12;100528.38;;;5.54;78.29
52651;BME280;38537;47.226;39.702;2023-04-15T00:35:40;100513.41;;;5.49;78.05
52651;BME280;38537;47.226;39.702;2023-04-15T00:38:07;100519.50;;;5.51;78.35
52651;BME280;38537;47.226;39.702;2023-04-15T00:40:35;100529.47;;;5.53;78.47
52651;BME280;38537;47.226;39.702;2023-04-15T00:43:03;100523.38;;;5.50;78.19
52651;BME280;38537;47.226;39.702;2023-04-15T00:45:31;100517.81;;;5.45;77.98
52651;BME280;38537;47.226;39.702;2023-04-15T00:47:59;100522.56;;;5.55;78.05
52651;BME280;38537;47.226;39.702;2023-04-15T00:50:26;100540.03;;;5.61;77.82
52651;BME280;38537;47.226;39.702;2023-04-15T00:52:54;100536.69;;;5.54;77.98
52651;BME280;38537;47.226;39.702;2023-04-15T00:55:21;100539.44;;;5.48;78.24
52651;BME280;38537;47.226;39.702;2023-04-15T00:57:49;100537.72;;;5.37;78.01
52651;BME280;38537;47.226;39.702;2023-04-15T01:00:16;100538.81;;;5.41;78.23
52651;BME280;38537;47.226;39.702;2023-04-15T01:02:45;100518.31;;;5.32;78.65
52651;BME280;38537;47.226;39.702;2023-04-15T01:05:13;100549.34;;;5.34;78.76
52651;BME280;38537;47.226;39.702;2023-04-15T01:07:43;100544.91;;;5.33;78.72
52651;BME280;38537;47.226;39.702;2023-04-15T01:10:10;100546.81;;;5.28;78.59
52651;BME280;38537;47.226;39.702;2023-04-15T01:12:37;100556.81;;;5.34;78.79
52651;BME280;38537;47.226;39.702;2023-04-15T01:15:06;100560.16;;;5.36;78.30
52651;BME280;38537;47.226;39.702;2023-04-15T01:17:34;100565.41;;;5.37;78.52
52651;BME280;38537;47.226;39.702;2023-04-15T01:20:01;100554.31;;;5.32;78.27
52651;BME280;38537;47.226;39.702;2023-04-15T01:22:29;100557.66;;;5.34;78.03
52651;BME280;38537;47.226;39.702;2023-04-15T01:25:07;100557.06;;;5.32;77.46
52651;BME280;38537;47.226;39.702;2023-04-15T01:27:40;100569.59;;;5.40;77.97
52651;BME280;38537;47.226;39.702;2023-04-15T01:30:09;100560.69;;;5.33;77.93
52651;BME280;38537;47.226;39.702;2023-04-15T01:32:36;100572.06;;;5.41;77.55
52651;BME280;38537;47.226;39.702;2023-04-15T01:35:22;100544.56;;;5.25;77.70
52651;BME280;38537;47.226;39.702;2023-04-15T01:37:50;100579.00;;;5.39;77.57
52651;BME280;38537;47.226;39.702;2023-04-15T01:40:19;100588.09;;;5.34;77.63
52651;BME280;38537;47.226;39.702;2023-04-15T01:42:48;100578.09;;;5.28;78.00
52651;BME280;38537;47.226;39.702;2023-04-15T01:45:16;100575.28;;;5.18;77.50
52651;BME280;38537;47.226;39.702;2023-04-15T01:47:45;100597.44;;;5.23;77.53
52651;BME280;38537;47.226;39.702;2023-04-15T01:50:13;100596.84;;;5.16;77.57
52651;BME280;38537;47.226;39.702;2023-04-15T01:52:42;100573.56;;;5.12;78.47
52651;BME280;38537;47.226;39.702;2023-04-15T01:55:10;100579.72;;;5.19;78.63
52651;BME280;38537;47.226;39.702;2023-04-15T01:57:39;100596.63;;;5.28;78.32
52651;BME280;38537;47.226;39.702;2023-04-15T02:00:08;100591.31;;;5.21;78.24
52651;BME280;38537;47.226;39.702;2023-04-15T02:02:42;100594.66;;;5.23;78.22
52651;BME280;38537;47.226;39.702;2023-04-15T02:05:11;100609.06;;;5.25;78.12
52651;BME280;38537;47.226;39.702;2023-04-15T02:07:42;100607.66;;;5.23;77.56
52651;BME280;38537;47.226;39.702;2023-04-15T02:10:10;100610.97;;;5.14;77.72
52651;BME280;38537;47.226;39.702;2023-04-15T02:12:40;100629.03;;;5.27;77.19
52651;BME280;38537;47.226;39.702;2023-04-15T02:15:09;100631.25;;;5.30;77.76
52651;BME280;38537;47.226;39.702;2023-04-15T02:17:37;100633.75;;;5.32;77.37
52651;BME280;38537;47.226;39.702;2023-04-15T02:20:09;100609.03;;;5.15;77.00
52651;BME280;38537;47.226;39.702;2023-04-15T02:22:37;100623.22;;;5.29;77.08
52651;BME280;38537;47.226;39.702;2023-04-15T02:25:07;100650.94;;;5.34;76.62
52651;BME280;38537;47.226;39.702;2023-04-15T02:27:36;100640.66;;;5.29;76.02
52651;BME280;38537;47.226;39.702;2023-04-15T02:30:05;100643.91;;;5.21;76.28
52651;BME280;38537;47.226;39.702;2023-04-15T02:32:35;100639.47;;;5.15;76.08
52651;BME280;38537;47.226;39.702;2023-04-15T02:35:06;100647.25;;;5.18;76.32
52651;BME280;38537;47.226;39.702;2023-04-15T02:37:36;100651.97;;;5.23;76.32
52651;BME280;38537;47.226;39.702;2023-04-15T02:40:11;100653.38;;;5.25;76.46
52651;BME280;38537;47.226;39.702;2023-04-15T02:42:40;100654.97;;;5.16;76.72
52651;BME280;38537;47.226;39.702;2023-04-15T02:45:12;100662.19;;;5.17;76.61
52651;BME280;38537;47.226;39.702;2023-04-15T02:47:41;100665.78;;;5.18;76.78
52651;BME280;38537;47.226;39.702;2023-04-15T02:50:12;100663.53;;;5.14;76.95
52651;BME280;38537;47.226;39.702;2023-04-15T02:52:42;100659.59;;;5.05;76.81
52651;BME280;38537;47.226;39.702;2023-04-15T02:55:11;100671.81;;;5.09;76.89
52651;BME280;38537;47.226;39.702;2023-04-15T02:57:40;100681.25;;;5.13;77.23
52651;BME280;38537;47.226;39.702;2023-04-15T03:00:10;100685.75;;;5.25;76.85
52651;BME280;38537;47.226;39.702;2023-04-15T03:02:44;100668.28;;;5.19;76.54
52651;BME280;38537;47.226;39.702;2023-04-15T03:05:14;100663.75;;;5.08;76.39
52651;BME280;38537;47.226;39.702;2023-04-15T03:07:48;100666.00;;;5.11;76.35
52651;BME280;38537;47.226;39.702;2023-04-15T03:10:17;100672.16;;;5.18;76.46
52651;BME280;38537;47.226;39.702;2023-04-15T03:12:47;100696.34;;;5.33;76.65
52651;BME280;38537;47.226;39.702;2023-04-15T03:15:21;100702.25;;;5.46;76.54
52651;BME280;38537;47.226;39.702;2023-04-15T03:17:52;100695.13;;;5.56;76.29
52651;BME280;38537;47.226;39.702;2023-04-15T03:20:20;100696.78;;;5.57;76.46
52651;BME280;38537;47.226;39.702;2023-04-15T03:22:49;100703.38;;;5.50;75.96
52651;BME280;38537;47.226;39.702;2023-04-15T03:25:19;100696.03;;;5.29;75.34
52651;BME280;38537;47.226;39.702;2023-04-15T03:27:47;100709.94;;;5.34;76.38
52651;BME280;38537;47.226;39.702;2023-04-15T03:30:17;100714.00;;;5.27;76.21
52651;BME280;38537;47.226;39.702;2023-04-15T03:32:45;100708.41;;;5.22;76.28
52651;BME280;38537;47.226;39.702;2023-04-15T03:35:14;100725.09;;;5.27;76.44
52651;BME280;38537;47.226;39.702;2023-04-15T03:37:43;100706.94;;;5.09;76.62
52651;BME280;38537;47.226;39.702;2023-04-15T03:40:11;100728.63;;;5.22;77.39
52651;BME280;38537;47.226;39.702;2023-04-15T03:42:40;100726.44;;;5.24;77.08
52651;BME280;38537;47.226;39.702;2023-04-15T03:45:08;100730.03;;;5.20;76.86
52651;BME280;38537;47.226;39.702;2023-04-15T03:47:37;100723.66;;;5.19;76.97
52651;BME280;38537;47.226;39.702;2023-04-15T03:50:06;100735.19;;;5.11;75.92
52651;BME280;38537;47.226;39.702;2023-04-15T03:52:34;100745.78;;;5.19;76.21
52651;BME280;38537;47.226;39.702;2023-04-15T03:55:03;100707.97;;;4.98;76.17
52651;BME280;38537;47.226;39.702;2023-04-15T03:57:31;100720.31;;;5.17;75.75
52651;BME280;38537;47.226;39.702;2023-04-15T04:00:00;100751.34;;;5.24;76.18
52651;BME280;38537;47.226;39.702;2023-04-15T04:02:38;100751.63;;;5.23;75.84
52651;BME280;38537;47.226;39.702;2023-04-15T04:05:07;100770.22;;;5.27;76.47
52651;BME280;38537;47.226;39.702;2023-04-15T04:07:36;100761.69;;;5.34;76.21
52651;BME280;38537;47.226;39.702;2023-04-15T04:10:04;100781.47;;;5.47;76.54
52651;BME280;38537;47.226;39.702;2023-04-15T04:12:33;100785.28;;;5.41;76.02
52651;BME280;38537;47.226;39.702;2023-04-15T04:15:01;100774.91;;;5.27;76.03
52651;BME280;38537;47.226;39.702;2023-04-15T04:17:30;100774.91;;;5.27;76.46
52651;BME280;38537;47.226;39.702;2023-04-15T04:19:58;100774.38;;;5.30;75.94
52651;BME280;38537;47.226;39.702;2023-04-15T04:22:26;100762.16;;;5.26;75.83
52651;BME280;38537;47.226;39.702;2023-04-15T04:24:55;100762.03;;;5.42;76.07
52651;BME280;38537;47.226;39.702;2023-04-15T04:27:24;100771.00;;;5.55;76.09
52651;BME280;38537;47.226;39.702;2023-04-15T04:29:53;100788.38;;;5.82;76.01
52651;BME280;38537;47.226;39.702;2023-04-15T04:32:21;100777.56;;;5.85;75.23
52651;BME280;38537;47.226;39.702;2023-04-15T04:34:49;100787.31;;;5.88;74.36
52651;BME280;38537;47.226;39.702;2023-04-15T04:37:18;100768.63;;;5.73;74.66
52651;BME280;38537;47.226;39.702;2023-04-15T04:39:46;100788.88;;;5.74;74.22
52651;BME280;38537;47.226;39.702;2023-04-15T04:42:15;100799.38;;;5.72;74.26
52651;BME280;38537;47.226;39.702;2023-04-15T04:44:43;100791.13;;;5.77;74.79
52651;BME280;38537;47.226;39.702;2023-04-15T04:47:12;100819.72;;;5.88;73.66
52651;BME280;38537;47.226;39.702;2023-04-15T04:49:40;100803.94;;;5.88;73.67
52651;BME280;38537;47.226;39.702;2023-04-15T04:52:09;100814.16;;;5.88;73.94
52651;BME280;38537;47.226;39.702;2023-04-15T04:54:38;100814.50;;;5.91;74.01
52651;BME280;38537;47.226;39.702;2023-04-15T04:57:07;100817.84;;;5.93;73.95
52651;BME280;38537;47.226;39.702;2023-04-15T04:59:35;100830.69;;;6.04;73.68
52651;BME280;38537;47.226;39.702;2023-04-15T05:02:03;100819.00;;;5.97;73.18
52651;BME280;38537;47.226;39.702;2023-04-15T05:04:32;100835.41;;;6.04;73.38
52651;BME280;38537;47.226;39.702;2023-04-15T05:07:01;100836.16;;;5.94;73.23
52651;BME280;38537;47.226;39.702;2023-04-15T05:09:29;100835.91;;;5.96;73.53
52651;BME280;38537;47.226;39.702;2023-04-15T05:11:59;100854.78;;;5.99;73.42
52651;BME280;38537;47.226;39.702;2023-04-15T05:14:28;100847.84;;;6.01;73.77
52651;BME280;38537;47.226;39.702;2023-04-15T05:16:56;100845.41;;;6.05;73.46
52651;BME280;38537;47.226;39.702;2023-04-15T05:19:25;100850.13;;;6.09;73.09
52651;BME280;38537;47.226;39.702;2023-04-15T05:21:54;100854.06;;;6.18;73.35
52651;BME280;38537;47.226;39.702;2023-04-15T05:24:22;100848.00;;;6.22;73.32
52651;BME280;38537;47.226;39.702;2023-04-15T05:26:50;100853.50;;;6.16;72.24
52651;BME280;38537;47.226;39.702;2023-04-15T05:29:19;100855.13;;;6.12;72.53
52651;BME280;38537;47.226;39.702;2023-04-15T05:31:48;100869.34;;;6.21;72.45
52651;BME280;38537;47.226;39.702;2023-04-15T05:34:16;100864.16;;;6.35;72.25
52651;BME280;38537;47.226;39.702;2023-04-15T05:36:45;100838.56;;;6.23;72.13
52651;BME280;38537;47.226;39.702;2023-04-15T05:39:13;100856.97;;;6.39;71.26
52651;BME280;38537;47.226;39.702;2023-04-15T05:41:41;100871.97;;;6.43;70.85
52651;BME280;38537;47.226;39.702;2023-04-15T05:44:09;100886.06;;;6.36;70.31
52651;BME280;38537;47.226;39.702;2023-04-15T05:46:38;100877.69;;;6.26;70.14
52651;BME280;38537;47.226;39.702;2023-04-15T05:49:07;100880.78;;;6.35;70.68
52651;BME280;38537;47.226;39.702;2023-04-15T05:51:35;100889.97;;;6.40;70.31
52651;BME280;38537;47.226;39.702;2023-04-15T05:54:03;100895.25;;;6.42;70.04
52651;BME280;38537;47.226;39.702;2023-04-15T05:56:32;100888.09;;;6.51;70.65
52651;BME280;38537;47.226;39.702;2023-04-15T05:59:01;100891.16;;;6.54;70.08
52651;BME280;38537;47.226;39.702;2023-04-15T06:01:29;100888.66;;;6.53;70.32
52651;BME280;38537;47.226;39.702;2023-04-15T06:03:58;100910.97;;;6.73;70.32
52651;BME280;38537;47.226;39.702;2023-04-15T06:06:26;100908.22;;;6.78;70.05
52651;BME280;38537;47.226;39.702;2023-04-15T06:08:54;100922.91;;;6.74;69.29
52651;BME280;38537;47.226;39.702;2023-04-15T06:11:23;100929.25;;;6.64;69.86
52651;BME280;38537;47.226;39.702;2023-04-15T06:13:52;100925.81;;;6.52;69.59
52651;BME280;38537;47.226;39.702;2023-04-15T06:16:21;100939.06;;;6.40;69.82
52651;BME280;38537;47.226;39.702;2023-04-15T06:18:50;100916.22;;;6.23;70.07
52651;BME280;38537;47.226;39.702;2023-04-15T06:21:19;100925.00;;;6.14;69.85
52651;BME280;38537;47.226;39.702;2023-04-15T06:23:47;100930.03;;;6.17;70.04
52651;BME280;38537;47.226;39.702;2023-04-15T06:26:15;100944.00;;;6.33;70.96
52651;BME280;38537;47.226;39.702;2023-04-15T06:28:44;100945.41;;;6.35;70.85
52651;BME280;38537;47.226;39.702;2023-04-15T06:31:13;100952.38;;;6.38;70.77
52651;BME280;38537;47.226;39.702;2023-04-15T06:33:41;100938.97;;;6.30;70.71
52651;BME280;38537;47.226;39.702;2023-04-15T06:36:09;100953.50;;;6.42;71.33
52651;BME280;38537;47.226;39.702;2023-04-15T06:38:38;100953.72;;;6.35;70.60
52651;BME280;38537;47.226;39.702;2023-04-15T06:41:06;100939.81;;;6.30;70.75
52651;BME280;38537;47.226;39.702;2023-04-15T06:43:35;100963.00;;;6.51;70.89
52651;BME280;38537;47.226;39.702;2023-04-15T06:46:03;100966.06;;;6.54;70.46
52651;BME280;38537;47.226;39.702;2023-04-15T06:48:32;100954.78;;;6.66;70.08
52651;BME280;38537;47.226;39.702;2023-04-15T06:51:00;100965.59;;;6.63;69.09
52651;BME280;38537;47.226;39.702;2023-04-15T06:53:28;100962.78;;;6.58;69.30
52651;BME280;38537;47.226;39.702;2023-04-15T06:55:57;100951.72;;;6.63;69.63
52651;BME280;38537;47.226;39.702;2023-04-15T06:58:25;100965.41;;;6.79;69.57
52651;BME280;38537;47.226;39.702;2023-04-15T07:00:53;100964.56;;;6.79;69.03
52651;BME280;38537;47.226;39.702;2023-04-15T07:03:22;100956.50;;;6.77;68.76
52651;BME280;38537;47.226;39.702;2023-04-15T07:05:50;100973.78;;;6.84;68.70
52651;BME280;38537;47.226;39.702;2023-04-15T07:08:19;100975.47;;;6.91;68.82
52651;BME280;38537;47.226;39.702;2023-04-15T07:10:48;100946.53;;;6.81;68.93
52651;BME280;38537;47.226;39.702;2023-04-15T07:13:16;100975.00;;;7.09;68.56
52651;BME280;38537;47.226;39.702;2023-04-15T07:15:44;100957.47;;;7.03;68.31
52651;BME280;38537;47.226;39.702;2023-04-15T07:18:13;100986.16;;;7.19;68.04
52651;BME280;38537;47.226;39.702;2023-04-15T07:20:41;100988.38;;;7.17;68.20
52651;BME280;38537;47.226;39.702;2023-04-15T07:23:10;100982.31;;;7.25;68.33
52651;BME280;38537;47.226;39.702;2023-04-15T07:25:39;101000.13;;;7.34;67.74
52651;BME280;38537;47.226;39.702;2023-04-15T07:28:08;100976.72;;;7.20;67.98
52651;BME280;38537;47.226;39.702;2023-04-15T07:30:36;100990.41;;;7.42;68.03
52651;BME280;38537;47.226;39.702;2023-04-15T07:33:05;101006.03;;;7.53;67.42
52651;BME280;38537;47.226;39.702;2023-04-15T07:35:34;100994.00;;;7.37;67.03
52651;BME280;38537;47.226;39.702;2023-04-15T07:38:02;101003.44;;;7.36;67.06
52651;BME280;38537;47.226;39.702;2023-04-15T07:40:31;101005.72;;;7.44;67.23
52651;BME280;38537;47.226;39.702;2023-04-15T07:43:00;101006.34;;;7.56;67.17
52651;BME280;38537;47.226;39.702;2023-04-15T07:45:28;101010.78;;;7.63;66.78
52651;BME280;38537;47.226;39.702;2023-04-15T07:47:57;101015.00;;;7.80;67.40
52651;BME280;38537;47.226;39.702;2023-04-15T07:50:25;101009.72;;;7.79;66.48
52651;BME280;38537;47.226;39.702;2023-04-15T07:52:55;101018.63;;;7.76;66.41
52651;BME280;38537;47.226;39.702;2023-04-15T07:55:24;101006.38;;;7.72;66.49
52651;BME280;38537;47.226;39.702;2023-04-15T07:57:55;101029.69;;;7.66;66.84
52651;BME280;38537;47.226;39.702;2023-04-15T08:00:24;101009.09;;;7.56;66.85
52651;BME280;38537;47.226;39.702;2023-04-15T08:02:53;101006.88;;;7.58;67.14
52651;BME280;38537;47.226;39.702;2023-04-15T08:05:24;101033.34;;;7.71;67.17
52651;BME280;38537;47.226;39.702;2023-04-15T08:07:53;101022.28;;;7.97;67.31
52651;BME280;38537;47.226;39.702;2023-04-15T08:10:21;101028.69;;;8.07;66.58
52651;BME280;38537;47.226;39.702;2023-04-15T08:12:50;101032.03;;;8.14;66.10
52651;BME280;38537;47.226;39.702;2023-04-15T08:15:21;101026.19;;;8.11;65.67
52651;BME280;38537;47.226;39.702;2023-04-15T08:17:49;101033.69;;;8.05;66.12
52651;BME280;38537;47.226;39.702;2023-04-15T08:20:18;101039.81;;;8.12;66.03
52651;BME280;38537;47.226;39.702;2023-04-15T08:22:47;101030.56;;;7.81;65.74
52651;BME280;38537;47.226;39.702;2023-04-15T08:25:19;101028.00;;;7.60;66.26
52651;BME280;38537;47.226;39.702;2023-04-15T08:27:48;101037.72;;;7.52;66.78
52651;BME280;38537;47.226;39.702;2023-04-15T08:30:16;101043.03;;;7.64;67.05
52651;BME280;38537;47.226;39.702;2023-04-15T08:32:45;101056.91;;;7.64;66.85
52651;BME280;38537;47.226;39.702;2023-04-15T08:35:14;101024.28;;;7.29;66.55
52651;BME280;38537;47.226;39.702;2023-04-15T08:37:43;101041.22;;;7.32;67.29
52651;BME280;38537;47.226;39.702;2023-04-15T08:40:11;101049.56;;;7.37;67.36
52651;BME280;38537;47.226;39.702;2023-04-15T08:42:43;101063.25;;;7.49;67.88
52651;BME280;38537;47.226;39.702;2023-04-15T08:45:12;101060.47;;;7.49;67.66
52651;BME280;38537;47.226;39.702;2023-04-15T08:47:42;101057.91;;;7.37;67.67
52651;BME280;38537;47.226;39.702;2023-04-15T08:50:11;101056.56;;;7.45;68.41
52651;BME280;38537;47.226;39.702;2023-04-15T08:52:42;101052.41;;;7.47;68.76
52651;BME280;38537;47.226;39.702;2023-04-15T08:55:11;101060.78;;;7.52;68.50
52651;BME280;38537;47.226;39.702;2023-04-15T08:57:40;101046.88;;;7.52;68.76
52651;BME280;38537;47.226;39.702;2023-04-15T09:00:09;101077.19;;;7.59;68.39
52651;BME280;38537;47.226;39.702;2023-04-15T09:02:37;101076.44;;;7.74;68.73
52651;BME280;38537;47.226;39.702;2023-04-15T09:05:07;101076.50;;;7.94;68.96
52651;BME280;38537;47.226;39.702;2023-04-15T09:07:35;101069.50;;;7.86;68.21
52651;BME280;38537;47.226;39.702;2023-04-15T09:10:04;101082.06;;;7.94;68.46
52651;BME280;38537;47.226;39.702;2023-04-15T09:12:36;101085.34;;;7.86;68.27
52651;BME280;38537;47.226;39.702;2023-04-15T09:15:05;101073.94;;;7.82;68.75
52651;BME280;38537;47.226;39.702;2023-04-15T09:17:42;101063.13;;;7.91;68.60
52651;BME280;38537;47.226;39.702;2023-04-15T09:20:11;101083.81;;;8.20;68.44
52651;BME280;38537;47.226;39.702;2023-04-15T09:22:42;101075.06;;;7.76;68.09
52651;BME280;38537;47.226;39.702;2023-04-15T09:28:00;101077.00;;;7.86;68.81
52651;BME280;38537;47.226;39.702;2023-04-15T09:30:28;101088.72;;;7.93;68.52
52651;BME280;38537;47.226;39.702;2023-04-15T09:32:59;101099.81;;;7.88;68.32
52651;BME280;38537;47.226;39.702;2023-04-15T09:35:31;101087.00;;;7.77;68.76
52651;BME280;38537;47.226;39.702;2023-04-15T09:38:02;101092.28;;;7.73;69.06
52651;BME280;38537;47.226;39.702;2023-04-15T09:43:04;101074.81;;;7.93;69.14
52651;BME280;38537;47.226;39.702;2023-04-15T09:45:34;101084.84;;;8.04;69.15
52651;BME280;38537;47.226;39.702;2023-04-15T09:48:23;101092.34;;;7.94;68.21
52651;BME280;38537;47.226;39.702;2023-04-15T09:50:57;101075.59;;;7.73;69.18
52651;BME280;38537;47.226;39.702;2023-04-15T09:53:26;101102.88;;;7.86;69.34
52651;BME280;38537;47.226;39.702;2023-04-15T09:55:59;101094.81;;;7.85;68.84
52651;BME280;38537;47.226;39.702;2023-04-15T09:58:31;101104.50;;;7.72;68.08
52651;BME280;38537;47.226;39.702;2023-04-15T10:01:03;101113.13;;;7.76;68.79
52651;BME280;38537;47.226;39.702;2023-04-15T10:03:35;101101.97;;;7.66;68.42
52651;BME280;38537;47.226;39.702;2023-04-15T10:06:06;101115.81;;;7.61;68.74
52651;BME280;38537;47.226;39.702;2023-04-15T10:08:35;101111.94;;;7.62;68.50
52651;BME280;38537;47.226;39.702;2023-04-15T10:11:03;101095.84;;;7.69;68.52
52651;BME280;38537;47.226;39.702;2023-04-15T10:13:33;101118.16;;;7.84;68.53
52651;BME280;38537;47.226;39.702;2023-04-15T10:18:35;101120.44;;;8.02;69.10
52651;BME280;38537;47.226;39.702;2023-04-15T10:21:05;101127.94;;;8.02;68.56
52651;BME280;38537;47.226;39.702;2023-04-15T10:23:35;101111.22;;;7.86;68.55
52651;BME280;38537;47.226;39.702;2023-04-15T10:26:06;101133.25;;;7.98;68.71
52651;BME280;38537;47.226;39.702;2023-04-15T10:28:35;101122.38;;;8.02;68.85
52651;BME280;38537;47.226;39.702;2023-04-15T10:31:04;101127.41;;;8.00;68.65
52651;BME280;38537;47.226;39.702;2023-04-15T10:33:34;101113.75;;;7.93;68.22
52651;BME280;38537;47.226;39.702;2023-04-15T10:36:03;101129.59;;;7.93;68.14
52651;BME280;38537;47.226;39.702;2023-04-15T10:38:36;101129.91;;;7.96;68.18
52651;BME280;38537;47.226;39.702;2023-04-15T10:41:14;101144.81;;;7.75;67.66
52651;BME280;38537;47.226;39.702;2023-04-15T10:43:54;101140.31;;;7.64;68.71
52651;BME280;38537;47.226;39.702;2023-04-15T10:49:16;101150.69;;;7.78;69.05
52651;BME280;38537;47.226;39.702;2023-04-15T10:51:54;101161.53;;;7.85;69.00
52651;BME280;38537;47.226;39.702;2023-04-15T11:02:17;101168.81;;;7.96;67.53
52651;BME280;38537;47.226;39.702;2023-04-15T11:04:57;101174.69;;;8.00;67.63
52651;BME280;38537;47.226;39.702;2023-04-15T11:07:33;101165.00;;;8.12;68.25
52651;BME280;38537;47.226;39.702;2023-04-15T11:10:49;101170.38;;;8.34;67.73
52651;BME280;38537;47.226;39.702;2023-04-15T11:12:56;101175.59;;;8.25;66.91
52651;BME280;38537;47.226;39.702;2023-04-15T11:15:28;101180.63;;;8.29;67.46
52651;BME280;38537;47.226;39.702;2023-04-15T11:20:42;101173.84;;;8.04;67.26
52651;BME280;38537;47.226;39.702;2023-04-15T11:23:27;101172.81;;;8.25;68.04
52651;BME280;38537;47.226;39.702;2023-04-15T11:25:56;101167.81;;;8.27;67.84
52651;BME280;38537;47.226;39.702;2023-04-15T11:28:29;101173.94;;;8.30;67.73
52651;BME280;38537;47.226;39.702;2023-04-15T11:31:02;101175.13;;;8.39;67.75
52651;BME280;38537;47.226;39.702;2023-04-15T11:33:33;101176.53;;;8.41;67.57
52651;BME280;38537;47.226;39.702;2023-04-15T11:36:01;101166.16;;;8.32;67.57
52651;BME280;38537;47.226;39.702;2023-04-15T11:38:33;101170.69;;;8.48;67.84
52651;BME280;38537;47.226;39.702;2023-04-15T11:41:01;101179.31;;;8.46;67.41
52651;BME280;38537;47.226;39.702;2023-04-15T11:43:31;101180.16;;;8.47;67.25
52651;BME280;38537;47.226;39.702;2023-04-15T11:46:00;101181.25;;;8.36;66.92
52651;BME280;38537;47.226;39.702;2023-04-15T11:48:32;101191.75;;;8.29;66.96
52651;BME280;38537;47.226;39.702;2023-04-15T11:51:06;101202.00;;;8.23;67.09
52651;BME280;38537;47.226;39.702;2023-04-15T11:53:45;101175.56;;;8.10;67.28
52651;BME280;38537;47.226;39.702;2023-04-15T11:56:24;101197.59;;;8.22;67.48
52651;BME280;38537;47.226;39.702;2023-04-15T11:58:56;101198.41;;;8.17;67.76
52651;BME280;38537;47.226;39.702;2023-04-15T12:01:35;101204.00;;;8.22;67.14
52651;BME280;38537;47.226;39.702;2023-04-15T12:04:13;101191.72;;;8.23;67.18
52651;BME280;38537;47.226;39.702;2023-04-15T12:06:42;101187.81;;;8.14;67.25
52651;BME280;38537;47.226;39.702;2023-04-15T12:09:13;101206.19;;;8.15;67.48
52651;BME280;38537;47.226;39.702;2023-04-15T12:11:46;101212.03;;;8.24;67.55
52651;BME280;38537;47.226;39.702;2023-04-15T12:14:30;101189.50;;;8.15;66.91
52651;BME280;38537;47.226;39.702;2023-04-15T12:17:01;101210.78;;;8.42;67.40
52651;BME280;38537;47.226;39.702;2023-04-15T12:19:37;101207.13;;;8.36;66.66
52651;BME280;38537;47.226;39.702;2023-04-15T12:22:11;101208.84;;;8.57;67.21
52651;BME280;38537;47.226;39.702;2023-04-15T12:24:39;101209.09;;;8.41;66.24
52651;BME280;38537;47.226;39.702;2023-04-15T12:27:09;101224.13;;;8.50;66.58
52651;BME280;38537;47.226;39.702;2023-04-15T12:29:39;101222.44;;;8.39;66.39
52651;BME280;38537;47.226;39.702;2023-04-15T12:32:11;101235.16;;;8.30;66.90
52651;BME280;38537;47.226;39.702;2023-04-15T12:34:41;101226.72;;;8.09;66.98
52651;BME280;38537;47.226;39.702;2023-04-15T12:37:10;101232.00;;;8.06;67.08
52651;BME280;38537;47.226;39.702;2023-04-15T12:39:39;101223.03;;;7.94;67.03
52651;BME280;38537;47.226;39.702;2023-04-15T12:42:08;101218.25;;;7.84;66.97
52651;BME280;38537;47.226;39.702;2023-04-15T12:44:36;101246.16;;;8.04;67.54
52651;BME280;38537;47.226;39.702;2023-04-15T12:47:03;101223.59;;;7.96;67.48
52651;BME280;38537;47.226;39.702;2023-04-15T12:49:31;101235.84;;;7.95;67.30
52651;BME280;38537;47.226;39.702;2023-04-15T12:52:01;101241.13;;;7.96;67.67
52651;BME280;38537;47.226;39.702;2023-04-15T12:54:30;101240.53;;;7.89;67.71
52651;BME280;38537;47.226;39.702;2023-04-15T12:56:58;101243.28;;;7.84;68.16
52651;BME280;38537;47.226;39.702;2023-04-15T12:59:25;101234.84;;;7.69;68.25
52651;BME280;38537;47.226;39.702;2023-04-15T13:01:53;101232.97;;;7.84;68.79
52651;BME280;38537;47.226;39.702;2023-04-15T13:04:21;101241.59;;;7.83;68.75
52651;BME280;38537;47.226;39.702;2023-04-15T13:06:49;101237.16;;;7.87;68.82
52651;BME280;38537;47.226;39.702;2023-04-15T13:09:16;101223.00;;;7.88;68.90
52651;BME280;38537;47.226;39.702;2023-04-15T13:11:43;101222.66;;;7.80;68.89
52651;BME280;38537;47.226;39.702;2023-04-15T13:14:12;101229.63;;;7.77;69.03
52651;BME280;38537;47.226;39.702;2023-04-15T13:16:39;101234.09;;;7.83;69.50
52651;BME280;38537;47.226;39.702;2023-04-15T13:19:07;101226.31;;;7.85;69.52
52651;BME280;38537;47.226;39.702;2023-04-15T13:21:34;101237.75;;;7.89;69.44
52651;BME280;38537;47.226;39.702;2023-04-15T13:24:04;101227.13;;;7.81;69.40